createdAt,value
2023-04-10T00:00:30.949Z,31.10
2023-04-10T00:01:53.916Z,28.00
2023-04-10T00:02:57.137Z,29.20
2023-04-10T00:04:00.458Z,29.00
2023-04-10T00:05:04.199Z,29.50
2023-04-10T00:06:07.732Z,29.20
2023-04-10T00:07:11.269Z,30.30
2023-04-10T00:08:14.500Z,29.40
2023-04-10T00:09:17.477Z,30.10
2023-04-10T00:10:20.781Z,29.70
2023-04-10T00:11:25.351Z,32.40
2023-04-10T00:12:28.301Z,31.30
2023-04-10T00:13:31.364Z,30.90
2023-04-10T00:14:34.207Z,31.90
2023-04-10T00:15:37.077Z,32.10
2023-04-10T00:16:40.234Z,34.40
2023-04-10T00:17:43.214Z,33.10
2023-04-10T00:18:47.239Z,32.50
2023-04-10T00:19:50.143Z,31.80
2023-04-10T00:20:53.414Z,30.70
2023-04-10T00:21:56.755Z,30.10
2023-04-10T00:22:59.734Z,32.00
2023-04-10T00:24:02.616Z,29.60
2023-04-10T00:25:06.626Z,30.00
2023-04-10T00:26:09.806Z,30.80
2023-04-10T00:27:13.114Z,28.00
2023-04-10T00:28:17.331Z,29.00
2023-04-10T00:29:20.462Z,29.60
2023-04-10T00:30:23.466Z,29.70
2023-04-10T00:31:26.478Z,28.20
2023-04-10T00:32:29.428Z,28.10
2023-04-10T00:33:32.351Z,28.80
2023-04-10T00:34:35.565Z,29.20
2023-04-10T00:35:38.861Z,29.30
2023-04-10T00:36:42.012Z,29.20
2023-04-10T00:37:44.876Z,31.00
2023-04-10T00:38:48.848Z,30.70
2023-04-10T00:39:51.708Z,31.20
2023-04-10T00:40:54.544Z,29.70
2023-04-10T00:41:57.772Z,30.70
2023-04-10T00:43:00.837Z,31.40
2023-04-10T00:44:03.764Z,31.30
2023-04-10T00:45:07.420Z,30.60
2023-04-10T00:46:10.746Z,30.10
2023-04-10T00:47:14.412Z,30.30
2023-04-10T00:48:17.565Z,29.90
2023-04-10T00:49:21.969Z,29.10
2023-04-10T00:50:24.861Z,30.50
2023-04-10T00:51:27.957Z,29.40
2023-04-10T00:52:32.504Z,28.90
2023-04-10T00:53:35.702Z,29.30
2023-04-10T00:54:38.773Z,29.70
2023-04-10T00:55:41.856Z,30.20
2023-04-10T00:56:46.678Z,29.60
2023-04-10T00:57:49.601Z,30.40
2023-04-10T00:58:52.712Z,30.10
2023-04-10T00:59:56.124Z,31.30
2023-04-10T01:00:59.068Z,30.90
2023-04-10T01:02:02.648Z,31.00
2023-04-10T01:03:06.053Z,32.60
2023-04-10T01:04:11.042Z,33.50
2023-04-10T01:05:14.375Z,33.50
2023-04-10T01:06:45.126Z,32.90
2023-04-10T01:08:12.885Z,30.20
2023-04-10T01:09:34.189Z,27.40
2023-04-10T01:10:48.644Z,27.20
2023-04-10T01:11:59.198Z,27.30
2023-04-10T01:13:20.459Z,26.60
2023-04-10T01:15:00.741Z,28.10
2023-04-10T01:16:20.753Z,28.80
2023-04-10T01:17:41.643Z,30.20
2023-04-10T01:18:49.971Z,30.50
2023-04-10T01:20:07.147Z,30.80
2023-04-10T01:21:14.927Z,29.80
2023-04-10T01:22:21.886Z,29.30
2023-04-10T01:23:44.562Z,28.50
2023-04-10T01:25:02.050Z,27.80
2023-04-10T01:26:07.433Z,28.40
2023-04-10T01:27:40.409Z,29.60
2023-04-10T01:28:49.540Z,28.10
2023-04-10T01:29:56.766Z,29.70
2023-04-10T01:31:02.783Z,28.50
2023-04-10T01:32:13.924Z,27.00
2023-04-10T01:33:20.706Z,26.60
2023-04-10T01:34:46.818Z,26.60
2023-04-10T01:35:56.470Z,26.70
2023-04-10T01:37:02.387Z,26.10
2023-04-10T01:38:07.308Z,26.90
2023-04-10T01:39:11.365Z,26.20
2023-04-10T01:40:16.643Z,27.00
2023-04-10T01:41:22.097Z,26.50
2023-04-10T01:42:31.232Z,25.80
2023-04-10T01:43:34.984Z,26.50
2023-04-10T01:44:42.173Z,25.50
2023-04-10T01:45:47.872Z,25.50
2023-04-10T01:46:51.768Z,25.60
2023-04-10T01:47:56.264Z,24.80
2023-04-10T01:49:02.411Z,25.30
2023-04-10T01:50:06.973Z,25.90
2023-04-10T01:51:11.747Z,24.40
2023-04-10T01:52:15.960Z,24.60
2023-04-10T01:53:24.811Z,24.80
2023-04-10T01:54:29.013Z,25.00
2023-04-10T01:55:33.476Z,24.50
2023-04-10T01:56:42.616Z,25.70
2023-04-10T01:57:49.167Z,24.90
2023-04-10T01:58:53.017Z,23.50
2023-04-10T01:59:55.950Z,24.70
2023-04-10T02:00:58.937Z,24.60
2023-04-10T02:02:02.271Z,25.70
2023-04-10T02:03:05.469Z,25.20
2023-04-10T02:04:08.494Z,24.50
2023-04-10T02:05:11.651Z,25.60
2023-04-10T02:06:44.937Z,25.10
2023-04-10T02:08:13.199Z,24.40
2023-04-10T02:09:27.934Z,24.20
2023-04-10T02:10:51.139Z,24.20
2023-04-10T02:12:05.975Z,22.60
2023-04-10T02:13:11.757Z,24.00
2023-04-10T02:14:18.302Z,24.70
2023-04-10T02:15:27.574Z,25.60
2023-04-10T02:16:32.043Z,24.50
2023-04-10T02:17:37.371Z,24.00
2023-04-10T02:18:42.620Z,24.50
2023-04-10T02:19:48.439Z,25.30
2023-04-10T02:20:52.774Z,24.00
2023-04-10T02:21:57.037Z,25.20
2023-04-10T02:23:03.838Z,23.40
2023-04-10T02:24:07.238Z,24.30
2023-04-10T02:25:10.621Z,25.50
2023-04-10T02:26:13.470Z,25.40
2023-04-10T02:27:16.641Z,24.90
2023-04-10T02:28:19.530Z,25.60
2023-04-10T02:29:22.771Z,25.40
2023-04-10T02:30:26.008Z,26.50
2023-04-10T02:31:29.088Z,25.70
2023-04-10T02:32:35.314Z,26.80
2023-04-10T02:33:38.229Z,26.40
2023-04-10T02:34:43.839Z,26.90
2023-04-10T02:35:46.749Z,25.20
2023-04-10T02:36:49.648Z,27.20
2023-04-10T02:37:52.790Z,26.30
2023-04-10T02:38:55.868Z,27.10
2023-04-10T02:39:59.678Z,27.40
2023-04-10T02:41:02.906Z,25.90
2023-04-10T02:42:05.838Z,27.30
2023-04-10T02:43:08.876Z,25.80
2023-04-10T02:44:11.753Z,26.10
2023-04-10T02:45:14.717Z,26.20
2023-04-10T02:46:18.897Z,26.20
2023-04-10T02:47:22.030Z,25.90
2023-04-10T02:48:25.061Z,25.80
2023-04-10T02:49:31.692Z,24.80
2023-04-10T02:50:35.738Z,24.40
2023-04-10T02:51:38.626Z,26.30
2023-04-10T02:52:42.171Z,26.90
2023-04-10T02:53:45.393Z,25.80
2023-04-10T02:54:52.861Z,25.00
2023-04-10T02:55:56.048Z,26.10
2023-04-10T02:56:59.038Z,27.30
2023-04-10T02:58:01.914Z,24.90
2023-04-10T02:59:05.125Z,26.10
2023-04-10T03:00:10.323Z,26.70
2023-04-10T03:01:55.104Z,25.00
2023-04-10T03:02:58.362Z,26.40
2023-04-10T03:04:04.395Z,26.90
2023-04-10T03:05:11.830Z,25.70
2023-04-10T03:06:14.898Z,26.20
2023-04-10T03:07:19.073Z,25.50
2023-04-10T03:08:22.421Z,25.10
2023-04-10T03:09:26.553Z,25.50
2023-04-10T03:10:30.033Z,24.10
2023-04-10T03:11:33.245Z,24.00
2023-04-10T03:12:37.135Z,26.50
2023-04-10T03:13:40.005Z,26.10
2023-04-10T03:14:42.851Z,24.80
2023-04-10T03:15:45.714Z,24.80
2023-04-10T03:16:48.797Z,25.50
2023-04-10T03:17:51.980Z,24.50
2023-04-10T03:18:54.881Z,25.30
2023-04-10T03:19:57.963Z,26.70
2023-04-10T03:21:02.185Z,26.50
2023-04-10T03:22:05.097Z,27.00
2023-04-10T03:23:08.113Z,29.10
2023-04-10T03:24:11.430Z,27.80
2023-04-10T03:25:14.482Z,26.10
2023-04-10T03:26:17.414Z,26.60
2023-04-10T03:27:20.816Z,25.00
2023-04-10T03:28:23.911Z,24.40
2023-04-10T03:29:26.772Z,25.80
2023-04-10T03:30:31.504Z,26.00
2023-04-10T03:31:34.433Z,26.10
2023-04-10T03:32:37.944Z,26.50
2023-04-10T03:33:41.044Z,25.30
2023-04-10T03:34:43.975Z,25.80
2023-04-10T03:35:47.553Z,27.30
2023-04-10T03:36:50.597Z,25.20
2023-04-10T03:37:53.508Z,26.00
2023-04-10T03:38:56.537Z,25.00
2023-04-10T03:39:59.463Z,26.30
2023-04-10T03:41:02.449Z,25.60
2023-04-10T03:42:07.042Z,25.90
2023-04-10T03:43:09.916Z,24.40
2023-04-10T03:44:12.880Z,24.90
2023-04-10T03:45:15.832Z,26.40
2023-04-10T03:46:18.734Z,27.20
2023-04-10T03:47:21.743Z,27.10
2023-04-10T03:48:30.715Z,26.70
2023-04-10T03:49:33.860Z,26.50
2023-04-10T03:50:40.689Z,26.70
2023-04-10T03:51:43.598Z,26.80
2023-04-10T03:52:46.507Z,25.80
2023-04-10T03:53:51.843Z,27.00
2023-04-10T03:54:55.674Z,28.30
2023-04-10T03:56:03.255Z,29.10
2023-04-10T03:57:06.178Z,28.30
2023-04-10T03:58:09.331Z,30.20
2023-04-10T03:59:13.363Z,31.10
2023-04-10T04:00:17.407Z,32.20
2023-04-10T04:01:23.358Z,31.20
2023-04-10T04:02:36.188Z,31.50
2023-04-10T04:03:39.801Z,31.20
2023-04-10T04:05:02.852Z,30.20
2023-04-10T04:06:19.893Z,31.80
2023-04-10T04:07:59.325Z,30.40
2023-04-10T04:09:13.613Z,31.70
2023-04-10T04:10:42.644Z,30.50
2023-04-10T04:11:53.576Z,30.80
2023-04-10T04:13:11.477Z,29.10
2023-04-10T04:14:25.452Z,29.90
2023-04-10T04:16:00.170Z,29.60
2023-04-10T04:17:15.393Z,29.70
2023-04-10T04:18:41.220Z,30.00
2023-04-10T04:20:07.684Z,28.20
2023-04-10T04:21:34.501Z,29.20
2023-04-10T04:23:03.388Z,28.30
2023-04-10T04:24:38.229Z,28.40
2023-04-10T04:25:52.883Z,28.60
2023-04-10T04:27:08.073Z,27.30
2023-04-10T04:28:23.630Z,27.20
2023-04-10T04:29:55.770Z,26.30
2023-04-10T04:31:02.662Z,26.80
2023-04-10T04:32:37.648Z,26.20
2023-04-10T04:34:00.629Z,25.80
2023-04-10T04:35:26.060Z,25.50
2023-04-10T04:36:47.990Z,23.90
2023-04-10T04:38:09.302Z,24.60
2023-04-10T04:39:27.103Z,25.40
2023-04-10T04:41:07.770Z,25.00
2023-04-10T04:42:33.404Z,23.40
2023-04-10T04:43:43.471Z,23.20
2023-04-10T04:44:57.766Z,26.20
2023-04-10T04:46:04.092Z,25.50
2023-04-10T04:47:25.943Z,25.60
2023-04-10T04:49:04.027Z,25.60
2023-04-10T04:50:29.920Z,29.40
2023-04-10T04:51:53.131Z,32.40
2023-04-10T04:53:13.477Z,29.40
2023-04-10T04:54:25.008Z,27.20
2023-04-10T04:55:46.508Z,25.60
2023-04-10T04:57:14.996Z,25.00
2023-04-10T04:58:41.325Z,25.90
2023-04-10T05:00:10.947Z,26.00
2023-04-10T05:01:39.823Z,26.00
2023-04-10T05:03:12.422Z,25.50
2023-04-10T05:04:49.163Z,25.00
2023-04-10T05:06:10.654Z,25.90
2023-04-10T05:07:45.017Z,25.60
2023-04-10T05:09:06.730Z,27.20
2023-04-10T05:10:28.316Z,25.50
2023-04-10T05:13:09.500Z,24.30
2023-04-10T05:14:23.409Z,24.00
2023-04-10T05:15:37.856Z,24.10
2023-04-10T05:16:50.053Z,24.90
2023-04-10T05:18:19.784Z,23.40
2023-04-10T05:19:34.495Z,23.40
2023-04-10T05:20:56.184Z,25.30
2023-04-10T05:22:21.864Z,24.60
2023-04-10T05:23:43.252Z,24.20
2023-04-10T05:25:05.572Z,25.00
2023-04-10T05:26:31.250Z,25.00
2023-04-10T05:27:56.166Z,23.20
2023-04-10T05:29:34.793Z,17.70
2023-04-10T05:30:57.997Z,23.30
2023-04-10T05:32:20.868Z,23.80
2023-04-10T05:33:50.125Z,22.60
2023-04-10T05:35:02.158Z,23.80
2023-04-10T05:36:19.609Z,23.80
2023-04-10T05:37:30.372Z,24.40
2023-04-10T05:38:51.579Z,24.50
2023-04-10T05:40:14.941Z,23.90
2023-04-10T05:41:45.201Z,24.80
2023-04-10T05:43:06.663Z,24.10
2023-04-10T05:44:27.934Z,23.50
2023-04-10T05:45:33.376Z,24.40
2023-04-10T05:46:52.901Z,24.10
2023-04-10T05:47:59.023Z,23.60
2023-04-10T05:49:22.567Z,24.40
2023-04-10T05:50:43.786Z,24.80
2023-04-10T05:51:52.105Z,23.40
2023-04-10T05:53:13.372Z,23.60
2023-04-10T05:54:35.119Z,22.80
2023-04-10T05:55:57.663Z,23.00
2023-04-10T05:57:18.676Z,21.30
2023-04-10T05:58:56.677Z,20.70
2023-04-10T06:00:35.023Z,21.20
2023-04-10T06:02:02.282Z,19.70
2023-04-10T06:03:05.522Z,20.80
2023-04-10T06:04:09.016Z,22.00
2023-04-10T06:05:12.773Z,21.70
2023-04-10T06:06:16.505Z,20.30
2023-04-10T06:07:19.326Z,20.70
2023-04-10T06:08:23.050Z,19.10
2023-04-10T06:09:25.915Z,19.90
2023-04-10T06:10:31.222Z,18.40
2023-04-10T06:11:34.188Z,18.40
2023-04-10T06:12:37.245Z,17.30
2023-04-10T06:13:40.624Z,17.40
2023-04-10T06:14:43.655Z,17.30
2023-04-10T06:15:47.859Z,16.30
2023-04-10T06:16:50.792Z,16.90
2023-04-10T06:17:54.235Z,16.10
2023-04-10T06:18:57.343Z,15.90
2023-04-10T06:20:04.701Z,16.10
2023-04-10T06:21:08.005Z,15.90
2023-04-10T06:22:11.026Z,15.40
2023-04-10T06:23:14.223Z,14.30
2023-04-10T06:24:17.146Z,14.60
2023-04-10T06:25:23.220Z,15.20
2023-04-10T06:26:30.360Z,14.40
2023-04-10T06:27:35.915Z,13.70
2023-04-10T06:28:38.862Z,12.60
2023-04-10T06:29:42.216Z,11.90
2023-04-10T06:30:45.529Z,12.70
2023-04-10T06:31:48.976Z,11.70
2023-04-10T06:32:53.724Z,11.50
2023-04-10T06:33:56.845Z,11.60
2023-04-10T06:34:59.865Z,11.50
2023-04-10T06:36:04.114Z,11.00
2023-04-10T06:37:09.684Z,10.60
2023-04-10T06:38:13.293Z,11.50
2023-04-10T06:39:16.296Z,10.90
2023-04-10T06:40:19.171Z,11.30
2023-04-10T06:41:22.054Z,10.40
2023-04-10T06:42:29.294Z,10.10
2023-04-10T06:43:38.092Z,11.00
2023-04-10T06:44:40.972Z,11.10
2023-04-10T06:45:43.891Z,10.90
2023-04-10T06:46:46.833Z,10.80
2023-04-10T06:47:49.896Z,10.40
2023-04-10T06:48:53.108Z,10.40
2023-04-10T06:49:56.264Z,10.10
2023-04-10T06:51:02.276Z,10.10
2023-04-10T06:52:05.891Z,9.40
2023-04-10T06:53:08.884Z,9.80
2023-04-10T06:54:11.839Z,9.80
2023-04-10T06:55:14.869Z,10.00
2023-04-10T06:56:17.898Z,9.10
2023-04-10T06:57:21.338Z,9.70
2023-04-10T06:58:24.781Z,8.90
2023-04-10T06:59:27.735Z,8.90
2023-04-10T07:00:31.066Z,8.50
2023-04-10T07:01:34.090Z,9.70
2023-04-10T07:02:37.240Z,8.80
2023-04-10T07:03:40.183Z,7.80
2023-04-10T07:04:43.004Z,7.90
2023-04-10T07:05:46.294Z,8.70
2023-04-10T07:06:49.143Z,8.20
2023-04-10T07:07:52.050Z,8.90
2023-04-10T07:08:55.101Z,8.30
2023-04-10T07:09:58.697Z,7.70
2023-04-10T07:11:01.668Z,8.10
2023-04-10T07:12:05.576Z,8.10
2023-04-10T07:13:08.536Z,7.60
2023-04-10T07:14:11.892Z,7.40
2023-04-10T07:15:14.896Z,8.60
2023-04-10T07:16:18.654Z,7.40
2023-04-10T07:17:22.187Z,7.40
2023-04-10T07:18:25.081Z,7.10
2023-04-10T07:19:28.201Z,6.40
2023-04-10T07:20:31.069Z,6.20
2023-04-10T07:21:33.998Z,6.70
2023-04-10T07:22:36.856Z,6.00
2023-04-10T07:23:39.888Z,6.40
2023-04-10T07:24:42.806Z,6.50
2023-04-10T07:25:46.696Z,6.80
2023-04-10T07:26:49.714Z,5.90
2023-04-10T07:27:52.554Z,6.20
2023-04-10T07:28:55.655Z,6.40
2023-04-10T07:29:58.727Z,6.30
2023-04-10T07:31:01.800Z,5.70
2023-04-10T07:32:05.113Z,5.80
2023-04-10T07:33:08.334Z,5.80
2023-04-10T07:34:12.100Z,6.20
2023-04-10T07:35:15.141Z,5.80
2023-04-10T07:36:18.160Z,5.90
2023-04-10T07:37:21.112Z,5.10
2023-04-10T07:38:24.814Z,5.40
2023-04-10T07:39:27.710Z,5.60
2023-04-10T07:40:30.888Z,5.00
2023-04-10T07:41:33.963Z,5.30
2023-04-10T07:42:36.977Z,5.00
2023-04-10T07:43:39.808Z,4.70
2023-04-10T07:44:42.692Z,5.10
2023-04-10T07:45:47.397Z,5.20
2023-04-10T07:46:52.384Z,4.90
2023-04-10T07:47:55.487Z,4.80
2023-04-10T07:48:58.483Z,5.00
2023-04-10T07:50:01.510Z,4.50
2023-04-10T07:51:05.222Z,4.80
2023-04-10T07:52:08.113Z,5.20
2023-04-10T07:53:11.122Z,5.00
2023-04-10T07:54:14.100Z,4.90
2023-04-10T07:55:17.154Z,4.70
2023-04-10T07:56:21.924Z,5.40
2023-04-10T07:57:24.827Z,5.00
2023-04-10T07:58:27.776Z,5.10
2023-04-10T07:59:30.700Z,4.80
2023-04-10T08:00:34.346Z,4.50
2023-04-10T08:01:37.411Z,4.90
2023-04-10T08:02:43.346Z,4.80
2023-04-10T08:03:47.824Z,4.90
2023-04-10T08:04:51.295Z,4.80
2023-04-10T08:05:54.372Z,4.80
2023-04-10T08:06:57.355Z,5.10
2023-04-10T08:08:00.361Z,4.50
2023-04-10T08:09:03.353Z,4.60
2023-04-10T08:10:06.623Z,4.40
2023-04-10T08:11:24.816Z,4.60
2023-04-10T08:12:27.659Z,4.40
2023-04-10T08:13:30.523Z,4.80
2023-04-10T08:14:33.376Z,4.50
2023-04-10T08:15:36.284Z,4.60
2023-04-10T08:16:39.670Z,4.50
2023-04-10T08:17:42.608Z,4.60
2023-04-10T08:18:45.845Z,5.00
2023-04-10T08:19:48.683Z,4.70
2023-04-10T08:20:51.690Z,4.90
2023-04-10T08:21:54.548Z,4.80
2023-04-10T08:23:03.129Z,4.90
2023-04-10T08:24:16.091Z,5.40
2023-04-10T08:25:19.003Z,4.90
2023-04-10T08:26:22.249Z,5.10
2023-04-10T08:27:25.391Z,5.30
2023-04-10T08:28:28.296Z,5.10
2023-04-10T08:29:31.252Z,5.50
2023-04-10T08:30:34.146Z,5.40
2023-04-10T08:31:37.089Z,5.10
2023-04-10T08:32:40.213Z,5.80
2023-04-10T08:33:43.171Z,5.10
2023-04-10T08:34:46.099Z,4.90
2023-04-10T08:35:51.820Z,5.60
2023-04-10T08:36:55.680Z,6.00
2023-04-10T08:38:12.525Z,5.50
2023-04-10T08:39:18.512Z,5.10
2023-04-10T08:40:21.531Z,5.40
2023-04-10T08:41:24.452Z,4.70
2023-04-10T08:42:27.546Z,5.50
2023-04-10T08:43:30.520Z,5.20
2023-04-10T08:44:33.614Z,5.00
2023-04-10T08:45:36.488Z,5.50
2023-04-10T08:46:43.744Z,4.80
2023-04-10T08:47:51.661Z,5.30
2023-04-10T08:49:22.940Z,4.80
2023-04-10T08:50:33.526Z,4.90
2023-04-10T08:51:39.821Z,4.60
2023-04-10T08:52:45.471Z,5.20
2023-04-10T08:53:51.659Z,4.40
2023-04-10T08:54:56.700Z,4.60
2023-04-10T08:56:03.234Z,4.90
2023-04-10T08:57:09.182Z,4.60
2023-04-10T08:58:14.075Z,5.70
2023-04-10T08:59:17.386Z,5.00
2023-04-10T09:00:23.297Z,4.90
2023-04-10T09:01:26.628Z,5.20
2023-04-10T09:02:29.738Z,4.50
2023-04-10T09:03:33.089Z,4.50
2023-04-10T09:04:36.957Z,5.10
2023-04-10T09:05:40.071Z,5.30
2023-04-10T09:06:43.277Z,4.90
2023-04-10T09:07:46.125Z,5.20
2023-04-10T09:08:48.996Z,4.90
2023-04-10T09:09:51.947Z,5.50
2023-04-10T09:10:56.322Z,5.00
2023-04-10T09:12:01.626Z,5.10
2023-04-10T09:13:04.946Z,4.90
2023-04-10T09:14:21.307Z,5.10
2023-04-10T09:15:24.645Z,4.80
2023-04-10T09:16:30.495Z,4.60
2023-04-10T09:17:37.774Z,4.50
2023-04-10T09:18:48.818Z,5.20
2023-04-10T09:19:56.459Z,4.50
2023-04-10T09:21:07.265Z,4.60
2023-04-10T09:22:10.676Z,4.70
2023-04-10T09:23:21.572Z,3.90
2023-04-10T09:24:25.394Z,4.20
2023-04-10T09:25:34.589Z,4.20
2023-04-10T09:26:37.516Z,3.90
2023-04-10T09:27:42.304Z,4.30
2023-04-10T09:29:00.246Z,3.90
2023-04-10T09:30:04.554Z,3.90
2023-04-10T09:31:28.756Z,4.10
2023-04-10T09:32:45.835Z,4.60
2023-04-10T09:33:48.688Z,3.80
2023-04-10T09:34:58.547Z,4.20
2023-04-10T09:36:01.427Z,3.50
2023-04-10T09:37:04.602Z,3.90
2023-04-10T09:38:17.945Z,4.10
2023-04-10T09:39:21.302Z,4.10
2023-04-10T09:40:25.769Z,3.40
2023-04-10T09:41:28.880Z,3.00
2023-04-10T09:42:32.758Z,4.00
2023-04-10T09:43:36.076Z,3.00
2023-04-10T09:44:40.644Z,3.70
2023-04-10T09:45:52.019Z,3.30
2023-04-10T09:46:55.705Z,3.40
2023-04-10T09:48:08.716Z,3.20
2023-04-10T09:49:11.767Z,3.20
2023-04-10T09:50:14.718Z,3.10
2023-04-10T09:51:34.947Z,3.70
2023-04-10T09:52:38.395Z,3.30
2023-04-10T09:53:51.159Z,3.60
2023-04-10T09:54:55.814Z,3.30
2023-04-10T09:55:59.181Z,4.00
2023-04-10T09:57:02.924Z,3.40
2023-04-10T09:58:06.650Z,3.20
2023-04-10T09:59:10.438Z,3.20
2023-04-10T10:00:14.874Z,3.60
2023-04-10T10:01:18.249Z,3.10
2023-04-10T10:02:23.148Z,3.10
2023-04-10T10:03:27.021Z,3.00
2023-04-10T10:04:30.357Z,3.00
2023-04-10T10:05:36.480Z,3.00
2023-04-10T10:06:39.888Z,3.20
2023-04-10T10:07:42.908Z,2.60
2023-04-10T10:08:45.901Z,3.00
2023-04-10T10:09:51.778Z,3.20
2023-04-10T10:10:59.268Z,3.60
2023-04-10T10:12:04.025Z,2.90
2023-04-10T10:13:09.010Z,2.80
2023-04-10T10:14:17.524Z,2.60
2023-04-10T10:15:39.424Z,2.60
2023-04-10T10:16:52.620Z,3.10
2023-04-10T10:18:07.922Z,3.40
2023-04-10T10:19:17.910Z,3.30
2023-04-10T10:20:24.077Z,3.50
2023-04-10T10:21:29.599Z,3.40
2023-04-10T10:22:32.847Z,3.40
2023-04-10T10:23:37.550Z,3.50
2023-04-10T10:24:45.852Z,2.80
2023-04-10T10:25:50.579Z,3.10
2023-04-10T10:26:55.765Z,3.50
2023-04-10T10:28:02.821Z,3.30
2023-04-10T10:29:10.680Z,3.10
2023-04-10T10:30:28.070Z,3.20
2023-04-10T10:31:33.991Z,3.30
2023-04-10T10:32:37.180Z,3.70
2023-04-10T10:33:41.197Z,3.00
2023-04-10T10:34:44.985Z,3.00
2023-04-10T10:35:47.978Z,3.20
2023-04-10T10:36:51.130Z,3.40
2023-04-10T10:37:55.214Z,2.90
2023-04-10T10:39:36.734Z,3.20
2023-04-10T10:41:02.693Z,3.00
2023-04-10T10:42:08.473Z,2.70
2023-04-10T10:43:14.362Z,2.70
2023-04-10T10:44:37.449Z,3.00
2023-04-10T10:45:50.438Z,2.30
2023-04-10T10:47:07.983Z,2.80
2023-04-10T10:48:11.372Z,3.00
2023-04-10T10:49:14.217Z,2.50
2023-04-10T10:50:17.111Z,3.00
2023-04-10T10:51:20.025Z,2.70
2023-04-10T10:52:38.661Z,2.50
2023-04-10T10:53:45.281Z,2.80
2023-04-10T10:54:58.896Z,2.80
2023-04-10T10:56:22.804Z,2.60
2023-04-10T10:57:54.738Z,2.80
2023-04-10T10:58:59.282Z,2.80
2023-04-10T11:00:02.807Z,2.30
2023-04-10T11:01:09.800Z,2.10
2023-04-10T11:02:16.295Z,2.30
2023-04-10T11:03:19.534Z,2.20
2023-04-10T11:04:42.506Z,2.20
2023-04-10T11:05:57.186Z,2.50
2023-04-10T11:07:00.054Z,2.30
2023-04-10T11:08:02.971Z,2.50
2023-04-10T11:09:05.954Z,2.00
2023-04-10T11:10:09.249Z,2.40
2023-04-10T11:11:18.622Z,2.30
2023-04-10T11:12:25.584Z,2.30
2023-04-10T11:13:28.912Z,2.20
2023-04-10T11:14:33.349Z,2.10
2023-04-10T11:15:36.865Z,2.40
2023-04-10T11:16:44.374Z,2.20
2023-04-10T11:17:54.598Z,2.10
2023-04-10T11:19:20.753Z,2.20
2023-04-10T11:20:27.524Z,2.20
2023-04-10T11:21:31.664Z,1.80
2023-04-10T11:23:11.286Z,2.20
2023-04-10T11:24:14.290Z,1.90
2023-04-10T11:25:17.307Z,2.10
2023-04-10T11:26:35.842Z,2.10
2023-04-10T11:27:46.325Z,2.10
2023-04-10T11:28:49.306Z,2.10
2023-04-10T11:29:52.758Z,2.40
2023-04-10T11:30:56.434Z,2.00
2023-04-10T11:32:01.795Z,2.20
2023-04-10T11:33:05.962Z,2.00
2023-04-10T11:34:13.366Z,2.30
2023-04-10T11:35:20.017Z,2.20
2023-04-10T11:36:24.375Z,2.20
2023-04-10T11:37:27.547Z,2.30
2023-04-10T11:38:30.738Z,2.30
2023-04-10T11:39:33.711Z,2.40
2023-04-10T11:40:54.557Z,1.70
2023-04-10T11:41:58.015Z,2.20
2023-04-10T11:43:19.128Z,2.10
2023-04-10T11:44:31.571Z,2.10
2023-04-10T11:45:34.518Z,2.30
2023-04-10T11:46:39.422Z,2.00
2023-04-10T11:47:42.322Z,2.00
2023-04-10T11:48:45.642Z,2.40
2023-04-10T11:49:55.970Z,2.10
2023-04-10T11:51:01.705Z,2.30
2023-04-10T11:52:04.748Z,2.30
2023-04-10T11:53:21.660Z,1.80
2023-04-10T11:54:26.457Z,2.00
2023-04-10T11:55:39.475Z,2.00
2023-04-10T11:56:44.721Z,2.00
2023-04-10T11:57:47.656Z,2.00
2023-04-10T11:58:54.342Z,2.10
2023-04-10T11:59:59.174Z,1.80
2023-04-10T12:01:03.147Z,2.10
2023-04-10T12:02:12.907Z,2.30
2023-04-10T12:03:16.134Z,2.00
2023-04-10T12:04:21.966Z,1.80
2023-04-10T12:05:25.025Z,1.90
2023-04-10T12:06:28.204Z,2.00
2023-04-10T12:07:32.651Z,2.10
2023-04-10T12:08:38.882Z,1.70
2023-04-10T12:09:42.791Z,2.00
2023-04-10T12:10:47.040Z,2.20
2023-04-10T12:12:01.558Z,2.10
2023-04-10T12:13:05.688Z,1.90
2023-04-10T12:14:09.095Z,2.00
2023-04-10T12:15:30.957Z,2.20
2023-04-10T12:16:34.121Z,1.90
2023-04-10T12:17:37.162Z,2.00
2023-04-10T12:18:40.588Z,2.20
2023-04-10T12:19:44.016Z,1.80
2023-04-10T12:20:47.535Z,1.70
2023-04-10T12:21:50.499Z,2.10
2023-04-10T12:22:56.506Z,1.90
2023-04-10T12:23:59.371Z,2.20
2023-04-10T12:25:02.539Z,1.80
2023-04-10T12:26:14.382Z,2.00
2023-04-10T12:27:27.750Z,1.80
2023-04-10T12:28:30.904Z,2.10
2023-04-10T12:29:33.937Z,2.20
2023-04-10T12:30:36.855Z,1.60
2023-04-10T12:31:39.999Z,1.70
2023-04-10T12:32:52.495Z,1.90
2023-04-10T12:33:57.989Z,2.10
2023-04-10T12:35:01.568Z,1.90
2023-04-10T12:36:04.736Z,1.50
2023-04-10T12:37:09.902Z,2.00
2023-04-10T12:38:12.833Z,1.90
2023-04-10T12:39:24.136Z,2.00
2023-04-10T12:40:27.731Z,1.80
2023-04-10T12:41:32.845Z,2.00
2023-04-10T12:42:42.013Z,1.90
2023-04-10T12:43:45.087Z,2.10
2023-04-10T12:44:59.041Z,1.90
2023-04-10T12:46:02.828Z,1.70
2023-04-10T12:47:05.875Z,1.90
2023-04-10T12:48:08.779Z,1.90
2023-04-10T12:49:17.171Z,2.20
2023-04-10T12:50:21.169Z,1.70
2023-04-10T12:51:43.829Z,1.90
2023-04-10T12:53:02.633Z,1.80
2023-04-10T12:54:05.852Z,1.60
2023-04-10T12:55:12.846Z,2.00
2023-04-10T12:56:18.036Z,1.70
2023-04-10T12:57:27.746Z,1.80
2023-04-10T12:58:31.738Z,1.90
2023-04-10T12:59:34.617Z,1.70
2023-04-10T13:00:37.585Z,2.00
2023-04-10T13:01:40.586Z,1.90
2023-04-10T13:02:43.859Z,2.00
2023-04-10T13:03:49.098Z,2.00
2023-04-10T13:04:53.001Z,1.90
2023-04-10T13:05:56.457Z,2.70
2023-04-10T13:06:59.332Z,2.00
2023-04-10T13:08:02.529Z,1.70
2023-04-10T13:09:05.367Z,1.80
2023-04-10T13:10:09.216Z,2.10
2023-04-10T13:11:12.251Z,1.80
2023-04-10T13:12:15.118Z,2.20
2023-04-10T13:13:18.361Z,2.40
2023-04-10T13:14:21.689Z,2.10
2023-04-10T13:15:24.566Z,2.10
2023-04-10T13:16:27.389Z,2.20
2023-04-10T13:17:30.456Z,1.90
2023-04-10T13:18:33.537Z,2.10
2023-04-10T13:19:36.471Z,1.70
2023-04-10T13:20:41.164Z,1.80
2023-04-10T13:21:44.782Z,1.80
2023-04-10T13:22:47.731Z,2.00
2023-04-10T13:23:50.666Z,1.90
2023-04-10T13:24:53.607Z,1.90
2023-04-10T13:25:59.030Z,2.10
2023-04-10T13:27:02.331Z,2.00
2023-04-10T13:28:10.316Z,2.10
2023-04-10T13:29:13.252Z,2.40
2023-04-10T13:30:16.180Z,2.10
2023-04-10T13:31:19.162Z,2.60
2023-04-10T13:32:22.036Z,1.90
2023-04-10T13:33:25.058Z,1.80
2023-04-10T13:34:28.189Z,1.90
2023-04-10T13:35:31.394Z,2.40
2023-04-10T13:36:34.505Z,2.00
2023-04-10T13:37:37.430Z,1.80
2023-04-10T13:38:40.411Z,1.90
2023-04-10T13:39:43.709Z,1.90
2023-04-10T13:40:46.663Z,2.10
2023-04-10T13:41:49.508Z,2.00
2023-04-10T13:42:52.524Z,2.30
2023-04-10T13:43:55.625Z,2.10
2023-04-10T13:44:58.732Z,2.00
2023-04-10T13:46:01.886Z,1.90
2023-04-10T13:47:04.788Z,1.80
2023-04-10T13:48:07.875Z,1.90
2023-04-10T13:49:10.865Z,1.80
2023-04-10T13:50:13.989Z,1.70
2023-04-10T13:51:16.883Z,1.80
2023-04-10T13:52:19.712Z,1.80
2023-04-10T13:53:22.570Z,1.90
2023-04-10T13:54:26.592Z,1.50
2023-04-10T13:55:29.474Z,1.70
2023-04-10T13:56:32.354Z,1.90
2023-04-10T13:57:35.324Z,1.90
2023-04-10T13:58:38.204Z,1.90
2023-04-10T13:59:41.742Z,1.70
2023-04-10T14:00:44.819Z,1.80
2023-04-10T14:01:51.036Z,2.30
2023-04-10T14:02:54.242Z,1.60
2023-04-10T14:03:57.406Z,1.80
2023-04-10T14:05:00.340Z,1.70
2023-04-10T14:06:03.194Z,2.20
2023-04-10T14:07:06.104Z,2.50
2023-04-10T14:08:11.803Z,1.90
2023-04-10T14:09:14.767Z,1.80
2023-04-10T14:10:17.643Z,1.70
2023-04-10T14:11:20.888Z,1.90
2023-04-10T14:12:23.790Z,1.80
2023-04-10T14:13:27.369Z,1.90
2023-04-10T14:14:30.796Z,2.00
2023-04-10T14:15:33.877Z,2.00
2023-04-10T14:16:36.870Z,1.80
2023-04-10T14:17:39.851Z,1.90
2023-04-10T14:18:42.786Z,2.00
2023-04-10T14:19:51.543Z,1.80
2023-04-10T14:20:54.664Z,1.90
2023-04-10T14:21:57.516Z,1.70
2023-04-10T14:23:00.358Z,2.20
2023-04-10T14:24:03.370Z,2.30
2023-04-10T14:25:12.956Z,1.80
2023-04-10T14:26:16.771Z,2.20
2023-04-10T14:27:19.592Z,2.10
2023-04-10T14:28:22.708Z,1.90
2023-04-10T14:29:34.866Z,1.70
2023-04-10T14:30:40.591Z,2.10
2023-04-10T14:31:56.724Z,1.80
2023-04-10T14:33:00.448Z,2.00
2023-04-10T14:34:03.436Z,2.10
2023-04-10T14:35:06.870Z,2.00
2023-04-10T14:36:10.167Z,2.10
2023-04-10T14:37:15.297Z,2.30
2023-04-10T14:38:18.541Z,2.00
2023-04-10T14:39:24.960Z,2.40
2023-04-10T14:40:27.861Z,2.10
2023-04-10T14:41:31.271Z,2.20
2023-04-10T14:42:34.138Z,2.10
2023-04-10T14:43:38.205Z,1.90
2023-04-10T14:44:41.114Z,1.90
2023-04-10T14:45:44.018Z,2.00